createdAt,value
2022-09-01T00:03:01.325Z,71.34
2022-09-01T00:08:05.999Z,71.34
2022-09-01T00:13:09.875Z,72.09
2022-09-01T00:18:14.153Z,72.77
2022-09-01T00:23:17.360Z,72.98
2022-09-01T00:28:21.083Z,72.54
2022-09-01T00:33:31.253Z,73.05
2022-09-01T00:38:35.075Z,72.65
2022-09-01T00:43:44.840Z,72.92
2022-09-01T00:48:52.246Z,73.50
2022-09-01T00:53:57.712Z,73.89
2022-09-01T00:59:02.714Z,73.47
2022-09-01T01:04:15.076Z,73.61
2022-09-01T01:09:20.693Z,73.90
2022-09-01T01:14:24.158Z,74.06
2022-09-01T01:20:03.311Z,74.28
2022-09-01T01:25:08.264Z,74.85
2022-09-01T01:30:12.974Z,74.97
2022-09-01T01:35:22.252Z,75.53
2022-09-01T01:40:26.459Z,75.25
2022-09-01T01:45:29.899Z,75.75
2022-09-01T01:50:36.097Z,76.23
2022-09-01T01:55:42.103Z,76.35
2022-09-01T02:00:47.596Z,76.85
2022-09-01T02:05:53.177Z,77.37
2022-09-01T02:10:58.126Z,77.11
2022-09-01T02:16:04.636Z,77.18
2022-09-01T02:21:16.322Z,77.56
2022-09-01T02:26:24.238Z,77.48
2022-09-01T02:31:28.489Z,78.20
2022-09-01T02:36:35.471Z,78.41
2022-09-01T02:41:39.395Z,78.37
2022-09-01T02:46:45.380Z,78.38
2022-09-01T02:51:54.253Z,78.20
2022-09-01T02:56:57.721Z,78.74
2022-09-01T03:02:01.855Z,79.22
2022-09-01T03:07:06.493Z,79.62
2022-09-01T03:12:10.989Z,79.96
2022-09-01T03:17:14.447Z,79.88
2022-09-01T03:22:18.372Z,79.68
2022-09-01T03:27:21.684Z,79.89
2022-09-01T03:32:25.096Z,79.81
2022-09-01T03:37:29.021Z,80.10
2022-09-01T03:42:32.845Z,80.08
2022-09-01T03:47:40.661Z,80.48
2022-09-01T03:52:44.994Z,80.62
2022-09-01T03:57:48.409Z,80.70
2022-09-01T04:02:56.606Z,80.86
2022-09-01T04:08:04.246Z,81.21
2022-09-01T04:13:12.064Z,81.41
2022-09-01T04:18:20.798Z,81.44
2022-09-01T04:23:31.277Z,81.48
2022-09-01T04:28:39.198Z,81.39
2022-09-01T04:33:44.966Z,81.77
2022-09-01T04:38:51.126Z,81.63
2022-09-01T04:43:57.302Z,82.41
2022-09-01T04:49:01.660Z,82.52
2022-09-01T04:54:08.450Z,82.82
2022-09-01T04:59:13.831Z,82.80
2022-09-01T05:04:22.738Z,83.04
2022-09-01T05:09:27.209Z,83.48
2022-09-01T05:14:31.114Z,83.38
2022-09-01T05:19:34.732Z,83.28
2022-09-01T05:24:41.941Z,84.85
2022-09-01T05:29:47.190Z,85.13
2022-09-01T05:36:01.157Z,84.93
2022-09-01T05:41:08.975Z,85.39
2022-09-01T05:46:16.108Z,84.65
2022-09-01T05:51:43.797Z,85.08
2022-09-01T05:56:49.061Z,84.71
2022-09-01T06:01:53.760Z,84.84
2022-09-01T06:07:05.702Z,84.75
2022-09-01T06:12:18.679Z,84.09
2022-09-01T06:17:25.420Z,84.29
2022-09-01T06:22:29.218Z,84.73
2022-09-01T06:27:41.133Z,84.30
2022-09-01T06:32:45.381Z,84.62
2022-09-01T06:37:48.984Z,84.74
2022-09-01T06:42:53.522Z,84.87
2022-09-01T06:48:00.316Z,85.05
2022-09-01T06:58:36.432Z,84.92
2022-09-01T07:03:40.558Z,85.15
2022-09-01T07:14:16.349Z,84.76
2022-09-01T07:19:20.288Z,84.54
2022-09-01T07:24:26.609Z,84.69
2022-09-01T07:29:35.514Z,84.52
2022-09-01T07:34:39.914Z,84.91
2022-09-01T07:42:56.887Z,84.53
2022-09-01T07:45:28.325Z,83.45
2022-09-01T07:56:10.971Z,80.83
2022-09-01T08:01:21.184Z,80.26
2022-09-01T08:06:27.301Z,79.69
2022-09-01T08:16:55.325Z,79.34
2022-09-01T08:21:58.803Z,77.55
2022-09-01T08:27:02.218Z,76.73
2022-09-01T08:32:05.834Z,77.15
2022-09-01T08:37:09.863Z,76.75
2022-09-01T08:42:26.485Z,76.23
2022-09-01T08:47:56.024Z,76.72
2022-09-01T08:53:09.996Z,77.06
2022-09-01T08:58:18.279Z,78.26
2022-09-01T09:03:41.658Z,78.58
2022-09-01T09:08:55.130Z,78.82
2022-09-01T09:14:15.672Z,78.80
2022-09-01T09:19:39.889Z,78.32
2022-09-01T09:24:58.929Z,77.68
2022-09-01T09:30:09.180Z,75.61
2022-09-01T09:35:19.988Z,74.97
2022-09-01T09:40:27.436Z,74.44
2022-09-01T09:45:34.594Z,74.20
2022-09-01T09:50:41.075Z,72.58
2022-09-01T09:56:04.973Z,69.96
2022-09-01T10:01:17.693Z,67.73
2022-09-01T10:06:30.742Z,69.31
2022-09-01T10:11:42.148Z,68.21
2022-09-01T10:16:52.215Z,67.69
2022-09-01T10:21:55.832Z,65.24
2022-09-01T10:27:04.478Z,63.99
2022-09-01T10:32:31.845Z,63.95
2022-09-01T10:37:37.761Z,63.76
2022-09-01T10:42:45.551Z,62.33
2022-09-01T10:47:49.304Z,63.65
2022-09-01T10:52:56.156Z,64.26
2022-09-01T11:03:47.883Z,60.55
2022-09-01T11:09:06.107Z,60.24
2022-09-01T11:14:23.070Z,60.87
2022-09-01T11:19:38.302Z,59.98
2022-09-01T11:24:50.856Z,59.25
2022-09-01T11:30:08.758Z,58.78
2022-09-01T11:35:19.392Z,59.26
2022-09-01T11:40:32.343Z,59.45
2022-09-01T11:45:52.636Z,58.17
2022-09-01T11:51:02.846Z,57.29
2022-09-01T11:56:35.690Z,56.73
2022-09-01T12:01:40.825Z,55.12
2022-09-01T12:06:56.952Z,54.17
2022-09-01T12:12:01.491Z,50.95
2022-09-01T12:17:06.987Z,51.71
2022-09-01T12:22:20.587Z,52.86
2022-09-01T12:27:23.917Z,55.01
2022-09-01T12:32:27.841Z,56.28
2022-09-01T12:37:31.562Z,56.78
2022-09-01T12:42:40.112Z,55.40
2022-09-01T12:47:49.933Z,54.87
2022-09-01T12:53:00.642Z,53.70
2022-09-01T12:58:08.105Z,52.09
2022-09-01T13:03:18.144Z,52.12
2022-09-01T13:08:28.702Z,52.45
2022-09-01T13:13:32.115Z,51.80
2022-09-01T13:19:10.330Z,50.96
2022-09-01T13:23:58.922Z,50.19
2022-09-01T13:29:02.426Z,50.21
2022-09-01T13:34:22.699Z,49.87
2022-09-01T13:39:27.272Z,49.22
2022-09-01T13:44:30.685Z,48.59
2022-09-01T13:49:42.483Z,46.84
2022-09-01T13:54:48.059Z,46.97
2022-09-01T13:59:52.045Z,48.12
2022-09-01T14:04:55.427Z,47.78
2022-09-01T14:09:58.811Z,47.71
2022-09-01T14:15:19.201Z,46.96
2022-09-01T14:20:33.390Z,47.01
2022-09-01T14:25:46.076Z,47.21
2022-09-01T14:35:56.631Z,46.56
2022-09-01T14:40:59.943Z,43.61
2022-09-01T14:46:11.000Z,40.92
2022-09-01T14:52:10.406Z,39.33
2022-09-01T15:02:14.731Z,33.00
2022-09-01T15:07:19.370Z,28.18
2022-09-01T15:12:22.782Z,23.54
2022-09-01T15:17:27.682Z,23.17
2022-09-01T15:22:31.251Z,20.38
2022-09-01T15:27:38.246Z,20.61
2022-09-01T15:32:45.961Z,18.15
2022-09-01T15:37:51.152Z,17.39
2022-09-01T15:42:56.055Z,17.04
2022-09-01T15:47:59.680Z,16.91
2022-09-01T15:53:08.596Z,16.79
2022-09-01T15:58:14.770Z,16.24
2022-09-01T16:03:18.435Z,16.54
2022-09-01T16:08:22.098Z,17.10
2022-09-01T16:13:26.168Z,17.08
2022-09-01T16:18:42.688Z,17.72
2022-09-01T16:23:51.632Z,17.76
2022-09-01T16:28:58.013Z,18.36
2022-09-01T16:34:10.501Z,18.52
2022-09-01T16:39:24.092Z,19.15
2022-09-01T16:44:32.523Z,19.51
2022-09-01T16:49:55.090Z,20.16
2022-09-01T16:55:13.144Z,20.86
2022-09-01T17:00:20.955Z,21.91
2022-09-01T17:05:30.279Z,22.86
2022-09-01T17:10:43.553Z,23.67
2022-09-01T17:15:55.106Z,24.90
2022-09-01T17:21:19.972Z,26.25
2022-09-01T17:26:29.278Z,28.11
2022-09-01T17:31:58.244Z,31.07
2022-09-01T17:37:41.994Z,34.07
2022-09-01T17:43:46.439Z,34.92
2022-09-01T17:48:57.306Z,37.94
2022-09-01T17:54:15.691Z,38.39
2022-09-01T17:59:36.709Z,39.35
2022-09-01T18:04:52.972Z,39.85
2022-09-01T18:10:00.711Z,40.81
2022-09-01T18:15:24.795Z,42.19
2022-09-01T18:20:40.750Z,42.89
2022-09-01T18:25:53.073Z,44.92
2022-09-01T18:30:59.858Z,44.60
2022-09-01T18:36:32.056Z,44.35
2022-09-01T18:41:54.410Z,46.04
2022-09-01T18:47:06.836Z,46.21
2022-09-01T18:52:25.402Z,45.94
2022-09-01T18:57:37.521Z,47.06
2022-09-01T19:03:02.425Z,47.54
2022-09-01T19:08:20.448Z,48.84
2022-09-01T19:13:55.141Z,48.42
2022-09-01T19:19:01.625Z,49.15
2022-09-01T19:24:19.067Z,48.54
2022-09-01T19:29:56.378Z,49.66
2022-09-01T19:35:12.828Z,50.30
2022-09-01T19:40:24.204Z,50.26
2022-09-01T19:45:38.255Z,50.60
2022-09-01T19:50:59.691Z,51.71
2022-09-01T19:56:10.067Z,52.92
2022-09-01T20:01:22.547Z,53.54
2022-09-01T20:06:36.461Z,53.91
2022-09-01T20:12:40.349Z,53.89
2022-09-01T20:17:50.760Z,54.77
2022-09-01T20:23:07.489Z,55.31
2022-09-01T20:28:48.785Z,55.21
2022-09-01T20:34:08.277Z,55.43
2022-09-01T20:39:38.726Z,55.88
2022-09-01T20:45:46.695Z,56.60
2022-09-01T20:50:52.622Z,57.06
2022-09-01T20:56:08.221Z,57.95
2022-09-01T21:01:32.089Z,57.91
2022-09-01T21:06:48.854Z,58.13
2022-09-01T21:12:24.409Z,58.12
2022-09-01T21:17:46.151Z,58.10
2022-09-01T21:22:51.162Z,58.96
2022-09-01T21:27:57.962Z,58.56
2022-09-01T21:33:01.922Z,58.42
2022-09-01T21:38:05.229Z,59.93
2022-09-01T21:43:23.086Z,59.22
2022-09-01T21:48:26.600Z,59.69
2022-09-01T21:53:29.907Z,60.07
2022-09-01T21:58:33.219Z,60.51
2022-09-01T22:03:36.835Z,60.53
2022-09-01T22:08:40.454Z,60.71
2022-09-01T22:13:45.301Z,60.82
2022-09-01T22:18:48.615Z,61.20
2022-09-01T22:23:52.028Z,61.73
2022-09-01T22:28:57.776Z,62.35
2022-09-01T22:34:01.513Z,62.04
2022-09-01T22:39:06.770Z,62.44
2022-09-01T22:44:10.782Z,62.65
2022-09-01T22:49:14.106Z,62.93
2022-09-01T22:54:17.625Z,63.06
2022-09-01T22:59:21.241Z,63.10
2022-09-01T23:04:25.372Z,63.44
2022-09-01T23:09:28.682Z,64.10
2022-09-01T23:14:32.158Z,64.76
2022-09-01T23:19:35.815Z,64.58
2022-09-01T23:24:39.230Z,64.62
2022-09-01T23:29:43.156Z,65.34
2022-09-01T23:34:48.104Z,65.09
2022-09-01T23:39:52.029Z,65.33
2022-09-01T23:44:55.342Z,65.52
2022-09-01T23:49:58.656Z,65.51
2022-09-01T23:55:01.963Z,66.54
